Time;durP1;ratioP1;P1;durP2;ratioP2;P2;SDS_P1;SDS_P2;PMS_P1;PMS_P2;Temp;Humidity;BMP_temperature;BMP_pressure;BME280_temperature;BME280_humidity;BME280_pressure;Samples;Min_cycle;Max_cycle;Signal;HPM_P1;HPM_P2
2021/12/05 00:20:27;;;;;;;4.10;1.30;;;5.90;99.90;;;;;;5096984;28;20028;-80
2021/12/05 00:22:49;;;;;;;6.17;0.90;;;5.90;99.90;;;;;;5096177;28;20024;-80
2021/12/05 00:25:26;;;;;;;2.87;0.90;;;5.90;99.90;;;;;;5084973;28;20027;-80
2021/12/05 00:28:12;;;;;;;2.63;0.93;;;5.90;99.90;;;;;;5113767;28;20051;-81
2021/12/05 00:31:02;;;;;;;5.07;1.00;;;5.90;99.90;;;;;;5080910;28;20011;-80
2021/12/05 00:33:49;;;;;;;1.93;0.47;;;5.90;99.90;;;;;;5113637;28;20035;-80
2021/12/05 00:42:01;;;;;;;2.10;0.73;;;5.80;99.90;;;;;;5105798;28;20422;-80
2021/12/05 00:47:30;;;;;;;3.17;0.70;;;5.90;99.90;;;;;;5103775;28;20143;-80
2021/12/05 01:15:43;;;;;;;2.27;0.90;;;5.80;99.90;;;;;;5117313;28;20027;-80
2021/12/05 01:18:14;;;;;;;6.37;1.17;;;5.80;99.90;;;;;;5098052;28;20026;-80
2021/12/05 01:20:44;;;;;;;4.47;0.60;;;5.80;99.90;;;;;;5102403;28;20061;-80
2021/12/05 01:23:27;;;;;;;6.40;0.70;;;5.80;99.90;;;;;;5113850;28;20027;-81
2021/12/05 01:26:02;;;;;;;6.03;0.77;;;5.80;99.90;;;;;;5097286;28;20032;-80
2021/12/05 01:31:17;;;;;;;3.13;0.80;;;5.90;99.90;;;;;;5096331;28;20040;-80
2021/12/05 01:34:14;;;;;;;4.70;1.03;;;5.80;99.90;;;;;;5093074;28;20046;-80
2021/12/05 01:36:58;;;;;;;5.63;0.90;;;5.80;99.90;;;;;;5084491;28;20026;-80
2021/12/05 01:53:18;;;;;;;2.10;0.60;;;5.80;99.90;;;;;;5108225;28;20027;-81
2021/12/05 01:57:06;;;;;;;4.93;0.90;;;5.70;99.90;;;;;;5092721;28;20023;-81
2021/12/05 01:59:14;;;;;;;7.53;1.83;;;5.60;99.90;;;;;;5102618;28;20487;-80
2021/12/05 02:01:56;;;;;;;5.53;0.70;;;5.50;99.90;;;;;;5085014;28;20475;-81
2021/12/05 02:37:35;;;;;;;4.87;1.10;;;5.60;99.90;;;;;;5104663;28;20048;-80
2021/12/05 02:45:25;;;;;;;4.30;0.93;;;5.50;99.90;;;;;;5103961;28;20020;-80
2021/12/05 02:47:51;;;;;;;2.73;0.70;;;5.50;99.90;;;;;;5092639;28;20027;-80
2021/12/05 02:50:21;;;;;;;5.00;0.73;;;5.50;99.90;;;;;;5097028;28;20062;-81
2021/12/05 02:52:47;;;;;;;6.13;0.90;;;5.50;99.90;;;;;;5091256;28;20019;-80
2021/12/05 02:55:28;;;;;;;6.57;1.20;;;5.50;99.90;;;;;;5086184;28;20042;-80
2021/12/05 02:58:01;;;;;;;4.37;0.77;;;5.50;99.90;;;;;;5096093;28;20023;-81
2021/12/05 03:01:18;;;;;;;4.47;0.90;;;5.50;99.90;;;;;;5097309;28;20023;-81
2021/12/05 03:03:23;;;;;;;3.60;0.70;;;5.50;99.90;;;;;;5093087;28;20032;-81
2021/12/05 03:05:56;;;;;;;2.50;0.57;;;5.50;99.90;;;;;;5092052;28;20019;-81
2021/12/05 03:08:22;;;;;;;4.13;0.60;;;5.40;99.90;;;;;;5097942;28;20112;-81
2021/12/05 03:10:49;;;;;;;5.43;0.67;;;5.40;99.90;;;;;;5090465;28;20043;-81
2021/12/05 03:13:15;;;;;;;6.20;0.80;;;5.40;99.90;;;;;;5076677;28;20038;-81
2021/12/05 03:15:41;;;;;;;2.13;0.70;;;5.40;99.90;;;;;;5091186;28;20111;-80
2021/12/05 03:18:07;;;;;;;2.77;0.60;;;5.30;99.90;;;;;;5095876;28;20023;-81
2021/12/05 03:20:33;;;;;;;3.57;0.80;;;5.30;99.90;;;;;;5080752;28;20050;-81
2021/12/05 03:22:59;;;;;;;5.37;0.97;;;5.30;99.90;;;;;;5094010;28;20034;-81
2021/12/05 03:25:25;;;;;;;1.50;0.57;;;5.30;99.90;;;;;;5094510;28;20501;-81
2021/12/05 03:27:51;;;;;;;2.63;0.80;;;5.30;99.90;;;;;;5097089;28;20028;-80
2021/12/05 03:30:21;;;;;;;4.00;0.60;;;5.30;99.90;;;;;;5096630;28;20459;-81
2021/12/05 03:32:49;;;;;;;2.90;0.73;;;5.30;99.90;;;;;;5108172;28;20055;-81
2021/12/05 03:35:16;;;;;;;3.00;0.73;;;5.30;99.90;;;;;;5086474;28;20023;-81
2021/12/05 03:37:42;;;;;;;6.23;0.83;;;5.30;99.90;;;;;;5082688;28;20016;-81
2021/12/05 03:40:09;;;;;;;7.43;0.80;;;5.30;99.90;;;;;;5093570;28;20028;-82
2021/12/05 03:42:35;;;;;;;6.03;0.90;;;5.30;99.90;;;;;;5091542;28;20080;-81
2021/12/05 03:45:05;;;;;;;2.13;0.43;;;5.30;99.90;;;;;;5102384;28;20107;-82
2021/12/05 03:47:31;;;;;;;5.50;0.83;;;5.30;99.90;;;;;;5084070;28;20023;-81
2021/12/05 03:49:57;;;;;;;4.93;0.70;;;5.30;99.90;;;;;;5092655;28;20024;-81
2021/12/05 03:52:23;;;;;;;5.13;0.60;;;5.30;99.90;;;;;;5079103;28;20448;-81
2021/12/05 03:54:49;;;;;;;2.57;0.60;;;5.30;99.90;;;;;;5094565;28;20104;-81
2021/12/05 03:57:15;;;;;;;2.60;0.60;;;5.20;99.90;;;;;;5113818;28;20016;-82
2021/12/05 03:59:41;;;;;;;4.03;0.80;;;5.10;99.90;;;;;;5082536;28;20019;-80
2021/12/05 04:02:08;;;;;;;4.30;0.80;;;5.10;99.90;;;;;;5109911;28;20093;-81
2021/12/05 04:04:34;;;;;;;3.27;0.67;;;5.00;99.90;;;;;;5076200;28;20024;-81
2021/12/05 04:07:00;;;;;;;1.57;0.60;;;5.00;99.90;;;;;;5102114;28;20027;-81
2021/12/05 04:09:26;;;;;;;1.83;0.77;;;5.00;99.90;;;;;;5083652;28;20020;-81
2021/12/05 04:11:59;;;;;;;5.30;0.60;;;5.00;99.90;;;;;;5109042;28;20127;-81
2021/12/05 04:14:30;;;;;;;5.10;0.63;;;5.00;99.90;;;;;;5096933;28;20055;-82
2021/12/05 04:16:56;;;;;;;2.87;1.10;;;4.90;99.90;;;;;;5106318;28;20091;-81
2021/12/05 04:19:22;;;;;;;1.87;0.50;;;4.90;99.90;;;;;;5086702;28;20054;-82
2021/12/05 04:21:48;;;;;;;3.37;0.73;;;4.90;99.90;;;;;;5100361;28;20080;-81
2021/12/05 04:24:15;;;;;;;4.03;0.67;;;5.00;99.90;;;;;;5078670;28;20161;-82
2021/12/05 04:26:42;;;;;;;2.43;0.50;;;5.00;99.90;;;;;;5099222;28;20455;-82
2021/12/05 04:29:08;;;;;;;1.43;0.60;;;5.00;99.90;;;;;;5104256;28;20027;-82
2021/12/05 04:31:36;;;;;;;1.10;0.43;;;5.00;99.90;;;;;;5106631;28;20032;-82
2021/12/05 04:34:03;;;;;;;2.33;0.70;;;5.00;99.90;;;;;;5098668;28;20072;-82
2021/12/05 04:36:29;;;;;;;2.97;0.40;;;5.00;99.90;;;;;;5083385;28;20039;-82
2021/12/05 04:38:54;;;;;;;2.20;0.50;;;5.00;99.90;;;;;;5110603;28;20020;-81
2021/12/05 04:41:20;;;;;;;4.47;0.70;;;5.00;99.90;;;;;;5090283;28;20105;-82
2021/12/05 04:43:47;;;;;;;3.23;0.50;;;5.00;99.90;;;;;;5103459;28;20020;-82
2021/12/05 04:46:17;;;;;;;3.57;0.53;;;5.00;99.90;;;;;;5096006;28;20023;-81
2021/12/05 04:48:46;;;;;;;1.80;0.47;;;5.00;99.90;;;;;;5085639;28;20051;-81
2021/12/05 04:51:12;;;;;;;1.47;0.60;;;5.00;99.90;;;;;;5107356;28;20016;-81
2021/12/05 04:53:38;;;;;;;2.10;0.73;;;5.00;99.90;;;;;;5092956;28;20080;-81
2021/12/05 04:56:05;;;;;;;3.87;0.60;;;5.00;99.90;;;;;;5097475;28;20097;-81
2021/12/05 04:58:30;;;;;;;1.87;0.30;;;4.90;99.90;;;;;;5095727;28;20023;-82
2021/12/05 05:00:57;;;;;;;3.20;0.53;;;4.90;99.90;;;;;;5087267;28;20016;-81
2021/12/05 05:03:24;;;;;;;3.17;0.63;;;4.90;99.90;;;;;;5087614;28;20016;-81
2021/12/05 05:06:01;;;;;;;2.43;0.63;;;4.90;99.90;;;;;;5094599;28;20027;-81
2021/12/05 05:08:30;;;;;;;1.77;0.60;;;4.90;99.90;;;;;;5079299;28;20023;-81
2021/12/05 05:10:56;;;;;;;1.83;0.50;;;4.90;99.90;;;;;;5106263;28;20111;-81
2021/12/05 05:13:22;;;;;;;2.17;0.50;;;4.90;99.90;;;;;;5094751;28;20070;-82
2021/12/05 05:15:48;;;;;;;3.23;0.60;;;4.90;99.90;;;;;;5103969;28;20073;-81
2021/12/05 05:18:13;;;;;;;5.30;0.97;;;4.90;99.90;;;;;;5108025;28;20020;-81
2021/12/05 05:24:10;;;;;;;6.13;1.00;;;4.90;99.90;;;;;;5071142;28;20036;-81
2021/12/05 05:27:36;;;;;;;2.63;1.00;;;4.90;99.90;;;;;;5110595;28;20047;-81
2021/12/05 05:45:49;;;;;;;0.90;0.43;;;4.80;99.90;;;;;;5100264;28;20039;-81
2021/12/05 05:48:40;;;;;;;2.93;0.70;;;4.70;99.90;;;;;;5088899;28;20024;-81
2021/12/05 05:51:02;;;;;;;1.23;0.67;;;4.70;99.90;;;;;;5106465;28;20074;-81
2021/12/05 05:53:28;;;;;;;4.53;0.70;;;4.70;99.90;;;;;;5084651;28;20047;-81
2021/12/05 05:55:55;;;;;;;1.67;0.73;;;4.60;99.90;;;;;;5095161;28;20024;-81
2021/12/05 05:58:27;;;;;;;5.70;0.60;;;4.60;99.90;;;;;;5088680;28;20583;-81
2021/12/05 06:01:02;;;;;;;2.90;0.85;;;4.60;99.90;;;;;;5090176;28;20067;-81
2021/12/05 06:03:31;;;;;;;2.33;0.80;;;4.60;99.90;;;;;;5084718;28;20257;-81
2021/12/05 06:06:09;;;;;;;2.33;0.57;;;4.50;99.90;;;;;;5113174;28;20028;-81
2021/12/05 06:08:36;;;;;;;3.80;0.50;;;4.60;99.90;;;;;;5081120;28;20111;-81
2021/12/05 06:11:06;;;;;;;5.03;0.70;;;4.50;99.90;;;;;;5106519;28;20507;-81
2021/12/05 06:13:32;;;;;;;4.00;0.50;;;4.50;99.90;;;;;;5103891;28;20103;-81
2021/12/05 06:15:59;;;;;;;1.97;0.57;;;4.50;99.90;;;;;;5090922;28;20032;-81
2021/12/05 06:18:25;;;;;;;4.43;0.60;;;4.50;99.90;;;;;;5079795;28;20025;-81
2021/12/05 06:20:52;;;;;;;4.00;0.70;;;4.60;99.90;;;;;;5080294;28;20020;-81
2021/12/05 06:23:17;;;;;;;4.13;0.83;;;4.60;99.90;;;;;;5085077;28;20384;-81
2021/12/05 06:25:47;;;;;;;4.00;0.50;;;4.60;99.90;;;;;;5089081;28;20064;-81
2021/12/05 06:28:14;;;;;;;3.93;0.70;;;4.60;99.90;;;;;;5077953;28;20059;-81
2021/12/05 06:31:00;;;;;;;2.37;0.57;;;4.70;99.90;;;;;;5089415;28;20020;-81
2021/12/05 06:47:13;;;;;;;3.10;0.70;;;4.60;99.90;;;;;;5097927;28;20031;-81
2021/12/05 06:49:41;;;;;;;2.00;0.50;;;4.60;99.90;;;;;;5101328;28;20031;-81
2021/12/05 06:52:08;;;;;;;1.77;0.70;;;4.60;99.90;;;;;;5081816;28;20491;-81
2021/12/05 06:54:39;;;;;;;3.47;0.83;;;4.70;99.90;;;;;;5082496;28;20065;-81
2021/12/05 06:57:06;;;;;;;4.43;0.70;;;4.60;99.90;;;;;;5093850;28;20451;-81
2021/12/05 06:59:32;;;;;;;5.03;1.00;;;4.60;99.90;;;;;;5086510;28;20020;-82
2021/12/05 07:01:58;;;;;;;0.87;0.50;;;4.60;99.90;;;;;;5090126;28;20424;-81
2021/12/05 07:07:06;;;;;;;2.83;0.53;;;4.60;99.90;;;;;;5098268;28;20326;-81
2021/12/05 07:09:32;;;;;;;2.63;1.00;;;4.60;99.90;;;;;;5080587;28;20020;-81
2021/12/05 07:17:08;;;;;;;3.50;0.67;;;4.50;99.90;;;;;;5107449;28;20074;-81
2021/12/05 07:19:53;;;;;;;3.37;0.57;;;4.50;99.90;;;;;;5107696;28;20034;-81
2021/12/05 07:22:25;;;;;;;3.40;0.67;;;4.50;99.90;;;;;;5109029;28;20418;-81
2021/12/05 07:25:02;;;;;;;3.05;0.60;;;4.50;99.90;;;;;;5081810;28;20104;-81
2021/12/05 07:41:11;;;;;;;2.73;0.60;;;4.60;99.90;;;;;;5101102;28;20443;-81
2021/12/05 07:43:37;;;;;;;2.90;0.90;;;4.70;99.90;;;;;;5096843;28;20058;-81
2021/12/05 07:46:06;;;;;;;5.50;0.50;;;4.70;99.90;;;;;;5080217;28;20039;-81
2021/12/05 07:48:35;;;;;;;1.57;0.57;;;4.80;99.90;;;;;;5096814;28;20039;-81
2021/12/05 07:53:54;;;;;;;2.73;0.70;;;4.80;99.90;;;;;;5108251;28;20032;-81
2021/12/05 07:56:37;;;;;;;2.50;0.57;;;4.90;99.90;;;;;;5087491;28;20034;-81
2021/12/05 07:59:16;;;;;;;2.70;0.60;;;4.90;99.90;;;;;;5096598;28;20019;-81
2021/12/05 08:15:44;;;;;;;1.30;0.40;;;5.10;99.90;;;;;;5101444;28;20411;-81
2021/12/05 08:18:10;;;;;;;1.93;0.50;;;5.10;99.90;;;;;;5092314;28;20449;-81
2021/12/05 08:20:41;;;;;;;2.60;0.70;;;5.10;99.90;;;;;;5075798;28;20082;-80
2021/12/05 08:23:08;;;;;;;4.67;0.43;;;5.20;99.90;;;;;;5084439;28;20050;-82
2021/12/05 08:25:38;;;;;;;2.27;0.50;;;5.20;99.90;;;;;;5087645;28;20405;-81
2021/12/05 08:30:44;;;;;;;1.33;0.30;;;5.20;99.90;;;;;;5094309;28;20084;-82
2021/12/05 08:33:29;;;;;;;2.73;1.03;;;5.30;99.90;;;;;;5102421;28;20024;-82
2021/12/05 09:08:26;;;;;;;3.00;0.70;;;5.30;99.90;;;;;;5096859;28;20020;-81
2021/12/05 09:25:46;;;;;;;2.03;0.50;;;5.60;99.90;;;;;;5103349;28;20023;-80
2021/12/05 10:09:38;;;;;;;5.73;0.87;;;5.40;99.90;;;;;;5096889;28;20097;-81
2021/12/05 10:34:13;;;;;;;3.63;0.70;;;5.60;99.90;;;;;;5098558;28;20579;-81
2021/12/05 10:36:41;;;;;;;2.57;1.13;;;5.60;99.90;;;;;;5095974;28;20012;-81
2021/12/05 10:39:11;;;;;;;3.67;0.77;;;5.70;99.90;;;;;;5077637;28;20028;-83
2021/12/05 10:44:10;;;;;;;1.90;0.93;;;5.80;99.90;;;;;;5106788;28;20016;-81
2021/12/05 10:46:39;;;;;;;2.53;0.77;;;5.90;99.90;;;;;;5090962;28;20528;-80
2021/12/05 10:49:10;;;;;;;1.53;0.80;;;5.90;99.90;;;;;;5108752;28;20123;-81
2021/12/05 10:51:39;;;;;;;2.05;0.95;;;5.90;99.90;;;;;;5090661;28;20062;-80
2021/12/05 10:54:15;;;;;;;4.07;1.10;;;5.90;99.90;;;;;;5087122;28;20036;-81
2021/12/05 10:57:04;;;;;;;4.40;1.00;;;5.90;99.90;;;;;;5106541;28;20465;-81
2021/12/05 10:59:38;;;;;;;1.30;0.63;;;6.00;99.90;;;;;;5076091;28;20032;-81
2021/12/05 11:02:06;;;;;;;2.00;0.90;;;6.10;99.90;;;;;;5078358;28;20527;-81
2021/12/05 11:04:44;;;;;;;3.77;0.90;;;6.10;99.90;;;;;;5090246;28;20020;-81
2021/12/05 11:07:21;;;;;;;3.10;0.93;;;6.00;99.90;;;;;;5089678;28;20024;-81
2021/12/05 11:09:52;;;;;;;2.00;0.70;;;6.10;99.90;;;;;;5088648;28;20019;-83
2021/12/05 11:12:23;;;;;;;2.50;0.70;;;6.00;99.90;;;;;;5082567;28;20087;-80
2021/12/05 11:14:51;;;;;;;2.63;0.90;;;6.10;99.90;;;;;;5094330;28;20024;-80
2021/12/05 11:17:25;;;;;;;3.43;0.70;;;6.10;99.90;;;;;;5108157;28;20020;-81
2021/12/05 11:20:09;;;;;;;1.70;0.63;;;6.20;99.90;;;;;;5106435;28;20019;-81
2021/12/05 11:22:44;;;;;;;2.53;0.90;;;6.30;99.90;;;;;;5077041;28;20441;-81
2021/12/05 11:25:11;;;;;;;2.80;0.90;;;6.30;99.90;;;;;;5083719;28;20423;-80
2021/12/05 11:27:39;;;;;;;4.03;0.80;;;6.30;99.90;;;;;;5092182;28;20015;-81
2021/12/05 11:30:05;;;;;;;2.73;0.70;;;6.40;99.90;;;;;;5096672;28;20024;-80
2021/12/05 11:32:53;;;;;;;2.23;0.73;;;6.30;99.90;;;;;;5091350;28;20027;-81
2021/12/05 11:35:37;;;;;;;3.80;0.80;;;6.40;99.90;;;;;;5088552;28;20028;-81
2021/12/05 11:38:23;;;;;;;2.20;0.80;;;6.50;99.90;;;;;;5105501;28;20099;-81
2021/12/05 11:41:08;;;;;;;1.33;0.60;;;6.60;99.90;;;;;;5089849;28;20034;-81
2021/12/05 11:43:52;;;;;;;0.53;0.53;;;6.50;99.90;;;;;;5089875;28;20031;-81
2021/12/05 11:46:21;;;;;;;2.40;0.83;;;6.50;99.90;;;;;;5088883;28;20476;-81
2021/12/05 11:49:10;;;;;;;2.13;0.57;;;6.40;99.90;;;;;;5089444;28;20015;-81
2021/12/05 11:51:47;;;;;;;5.17;0.60;;;6.40;99.90;;;;;;5089587;28;20036;-81
2021/12/05 11:54:30;;;;;;;1.90;0.30;;;6.30;99.90;;;;;;5087529;28;20077;-81
2021/12/05 11:57:06;;;;;;;;;;;6.30;99.90;;;;;;5095010;28;20034;-81
2021/12/05 12:00:01;;;;;;;4.33;0.50;;;6.30;99.90;;;;;;5076886;28;19904;-81
2021/12/05 12:02:30;;;;;;;2.37;0.47;;;6.40;99.90;;;;;;5067309;28;20208;-80
2021/12/05 12:04:56;;;;;;;1.23;0.53;;;6.30;99.90;;;;;;5076457;28;20020;-81
2021/12/05 12:07:45;;;;;;;3.67;0.77;;;6.30;99.90;;;;;;5075829;28;20020;-80
2021/12/05 12:10:41;;;;;;;3.47;0.60;;;6.30;99.90;;;;;;5105198;28;20020;-81
2021/12/05 12:13:10;;;;;;;0.93;0.50;;;6.40;99.90;;;;;;5075665;28;20055;-82
2021/12/05 12:15:39;;;;;;;3.10;0.50;;;6.50;99.90;;;;;;5072901;28;20020;-81
2021/12/05 12:18:17;;;;;;;1.03;0.40;;;6.50;99.90;;;;;;5080404;28;20091;-81
2021/12/05 12:20:46;;;;;;;1.17;0.50;;;6.40;99.90;;;;;;5087141;28;20013;-81
2021/12/05 12:23:15;;;;;;;1.93;0.40;;;6.30;99.90;;;;;;5085795;28;20052;-81
2021/12/05 12:25:43;;;;;;;1.93;0.70;;;6.20;99.90;;;;;;5086880;28;20060;-81
2021/12/05 12:28:10;;;;;;;0.67;0.30;;;6.30;99.90;;;;;;5075498;28;20027;-81
2021/12/05 12:30:40;;;;;;;1.53;0.43;;;6.30;99.90;;;;;;5079234;28;20070;-81
2021/12/05 12:33:14;;;;;;;1.07;0.40;;;6.40;99.90;;;;;;5081729;28;20036;-81
2021/12/05 12:35:44;;;;;;;2.03;0.60;;;6.50;99.90;;;;;;5072579;28;20020;-81
2021/12/05 12:38:17;;;;;;;1.43;0.53;;;6.50;99.90;;;;;;5071785;28;20120;-81
2021/12/05 12:40:51;;;;;;;2.00;0.50;;;6.60;99.90;;;;;;5072322;28;20492;-81
2021/12/05 12:43:51;;;;;;;2.20;0.40;;;6.60;99.90;;;;;;5071711;28;20025;-81
2021/12/05 12:46:28;;;;;;;1.23;0.50;;;6.60;99.90;;;;;;5085302;28;20008;-81
2021/12/05 12:48:56;;;;;;;1.90;0.77;;;6.60;99.90;;;;;;5086004;28;20402;-81
2021/12/05 12:51:40;;;;;;;3.07;0.97;;;6.50;99.90;;;;;;5087154;28;20031;-81
2021/12/05 12:54:09;;;;;;;2.83;0.97;;;6.40;99.90;;;;;;5086354;28;20028;-82
2021/12/05 12:56:36;;;;;;;4.13;0.83;;;6.50;99.90;;;;;;5076188;28;20016;-81
2021/12/05 12:59:10;;;;;;;3.10;0.90;;;6.80;99.90;;;;;;5083233;28;20109;-82
2021/12/05 13:10:08;;;;;;;2.37;1.00;;;7.60;99.70;;;;;;5051030;28;20021;-83
2021/12/05 13:12:40;;;;;;;3.63;1.00;;;7.60;99.90;;;;;;5071180;28;20484;-81
2021/12/05 13:15:28;;;;;;;2.92;0.90;;;7.50;99.80;;;;;;5092314;28;20031;-82
2021/12/05 13:17:56;;;;;;;2.00;0.80;;;7.60;99.70;;;;;;5088879;28;20056;-82
2021/12/05 13:20:29;;;;;;;1.73;0.57;;;7.50;99.80;;;;;;5091364;28;20376;-82
2021/12/05 13:23:03;;;;;;;3.67;0.93;;;7.60;99.80;;;;;;5091500;28;20115;-82
2021/12/05 13:25:32;;;;;;;3.72;1.10;;;7.80;99.40;;;;;;5113118;28;20030;-82
2021/12/05 13:27:58;;;;;;;3.55;0.93;;;8.00;99.00;;;;;;5082694;28;20031;-82
2021/12/05 13:30:29;;;;;;;2.08;1.00;;;8.30;98.60;;;;;;5080114;28;20028;-81
2021/12/05 13:33:17;;;;;;;3.03;1.00;;;8.60;97.50;;;;;;5083248;28;20039;-82
2021/12/05 13:35:43;;;;;;;1.55;0.70;;;8.50;96.90;;;;;;5075015;28;20027;-82
2021/12/05 13:38:30;;;;;;;1.73;0.60;;;8.50;96.80;;;;;;5089207;28;20027;-83
2021/12/05 13:41:11;;;;;;;2.13;0.63;;;8.70;96.30;;;;;;5092010;28;20012;-82
2021/12/05 13:43:37;;;;;;;2.25;1.05;;;8.80;96.50;;;;;;5091809;28;20032;-82
2021/12/05 13:46:34;;;;;;;1.83;0.60;;;8.80;96.60;;;;;;5088447;28;20024;-82
2021/12/05 13:49:02;;;;;;;3.22;0.70;;;8.90;96.50;;;;;;5084823;28;20110;-83
2021/12/05 13:51:28;;;;;;;1.98;0.80;;;8.80;97.00;;;;;;5082589;28;20024;-82
2021/12/05 13:53:59;;;;;;;4.18;0.70;;;8.80;96.10;;;;;;5080688;28;20031;-82
2021/12/05 13:56:26;;;;;;;1.87;0.53;;;8.90;96.10;;;;;;5092453;28;20020;-82
2021/12/05 13:58:56;;;;;;;2.50;1.00;;;8.80;96.70;;;;;;5089687;28;20448;-82
2021/12/05 14:01:25;;;;;;;3.17;0.60;;;8.70;97.50;;;;;;5091558;28;20028;-82
2021/12/05 14:03:56;;;;;;;2.72;0.55;;;8.70;96.70;;;;;;5110543;28;20027;-81
2021/12/05 14:06:47;;;;;;;3.58;0.70;;;8.60;96.80;;;;;;5083619;28;20050;-82
2021/12/05 14:09:23;;;;;;;3.05;0.70;;;8.50;95.80;;;;;;5081412;28;20064;-82
2021/12/05 14:12:07;;;;;;;2.75;0.82;;;8.40;95.40;;;;;;5090798;28;20048;-81
2021/12/05 14:14:35;;;;;;;2.50;0.40;;;8.30;95.70;;;;;;5083657;28;20021;-82
2021/12/05 14:17:05;;;;;;;1.52;0.50;;;8.30;95.50;;;;;;5083549;28;20464;-82
2021/12/05 14:19:33;;;;;;;1.63;0.73;;;8.30;95.50;;;;;;5075235;28;20029;-82
2021/12/05 14:22:01;;;;;;;1.63;0.63;;;8.40;95.90;;;;;;5088425;28;20051;-82
2021/12/05 14:24:30;;;;;;;1.30;0.60;;;8.40;95.20;;;;;;5077625;28;20107;-82
2021/12/05 14:27:01;;;;;;;1.75;0.50;;;8.30;95.20;;;;;;5091863;28;20138;-82
2021/12/05 14:29:28;;;;;;;2.47;0.50;;;8.10;95.50;;;;;;5089552;28;20020;-82
2021/12/05 14:32:06;;;;;;;1.58;0.60;;;8.00;95.60;;;;;;5087839;28;20481;-82
2021/12/05 14:34:33;;;;;;;1.40;0.60;;;8.00;96.00;;;;;;5078656;28;20039;-82
2021/12/05 14:37:17;;;;;;;1.02;0.60;;;7.90;96.10;;;;;;5091349;28;20024;-82
2021/12/05 14:39:47;;;;;;;2.20;0.60;;;7.70;96.40;;;;;;5073854;28;20031;-82
2021/12/05 14:42:20;;;;;;;2.90;0.93;;;7.60;96.70;;;;;;5076424;28;20062;-82
2021/12/05 14:44:52;;;;;;;1.92;0.63;;;7.60;97.40;;;;;;5082859;28;20025;-82
2021/12/05 14:47:25;;;;;;;3.00;0.68;;;7.40;97.60;;;;;;5084342;28;20035;-82
2021/12/05 14:49:57;;;;;;;2.92;0.90;;;7.40;97.80;;;;;;5088227;28;20074;-82
2021/12/05 14:52:29;;;;;;;1.80;0.63;;;7.20;97.80;;;;;;5084740;28;20028;-82
2021/12/05 14:54:55;;;;;;;1.58;0.70;;;7.20;98.10;;;;;;5081798;28;20028;-82
2021/12/05 14:57:28;;;;;;;2.13;0.70;;;7.10;98.20;;;;;;5090549;28;20036;-82
2021/12/05 15:00:40;;;;;;;2.25;0.88;;;7.00;98.80;;;;;;5074693;28;20355;-81
2021/12/05 15:03:17;;;;;;;2.38;1.05;;;6.90;99.30;;;;;;5082707;28;20044;-82
2021/12/05 15:05:46;;;;;;;4.07;1.30;;;6.80;99.70;;;;;;5089509;28;20111;-82
2021/12/05 15:08:15;;;;;;;2.27;1.07;;;6.70;99.80;;;;;;5071024;28;20028;-82
2021/12/05 15:10:42;;;;;;;4.40;1.53;;;6.70;99.90;;;;;;5079388;28;20031;-81
2021/12/05 15:13:09;;;;;;;3.27;1.20;;;6.60;99.90;;;;;;5077394;28;20506;-82
2021/12/05 15:15:35;;;;;;;3.07;1.20;;;6.50;99.90;;;;;;5086615;28;20035;-82
2021/12/05 15:18:01;;;;;;;1.70;1.00;;;6.50;99.90;;;;;;5069680;28;20078;-80
2021/12/05 15:20:30;;;;;;;2.03;1.00;;;6.40;99.90;;;;;;5075818;28;20066;-81
2021/12/05 15:23:03;;;;;;;1.80;1.10;;;6.40;99.90;;;;;;5090424;28;20058;-81
2021/12/05 15:25:30;;;;;;;1.93;0.77;;;6.40;99.90;;;;;;5090899;28;20051;-81
2021/12/05 15:27:58;;;;;;;4.10;0.93;;;6.40;99.90;;;;;;5088071;28;20033;-81
2021/12/05 15:30:30;;;;;;;5.10;0.90;;;6.30;99.90;;;;;;5077632;28;20373;-81
2021/12/05 15:32:57;;;;;;;;;;;6.30;99.90;;;;;;5079717;28;20032;-82
2021/12/05 15:35:24;;;;;;;2.27;0.77;;;6.20;99.90;;;;;;5069837;28;19977;-82
2021/12/05 15:37:50;;;;;;;4.93;1.00;;;6.20;99.90;;;;;;5087087;28;20307;-81
2021/12/05 15:40:16;;;;;;;3.70;1.10;;;6.20;99.90;;;;;;5075280;28;20059;-81
2021/12/05 15:42:42;;;;;;;3.07;1.10;;;6.20;99.90;;;;;;5080783;28;20131;-81
2021/12/05 15:45:10;;;;;;;1.53;0.70;;;6.30;99.90;;;;;;5083050;28;20162;-81
2021/12/05 15:47:37;;;;;;;2.07;0.87;;;6.20;99.90;;;;;;5073510;28;20412;-82
2021/12/05 15:50:23;;;;;;;2.93;0.80;;;6.20;99.90;;;;;;5086881;28;20155;-81
2021/12/05 15:52:57;;;;;;;3.40;0.90;;;6.10;99.90;;;;;;5080521;28;20032;-81
2021/12/05 15:55:30;;;;;;;2.80;0.90;;;6.00;99.90;;;;;;5084499;28;20028;-82
2021/12/05 15:58:08;;;;;;;3.10;1.20;;;5.90;99.90;;;;;;5088005;28;20032;-82
2021/12/05 16:00:47;;;;;;;2.80;0.87;;;5.80;99.90;;;;;;5078392;28;20028;-81
2021/12/05 16:03:19;;;;;;;2.70;0.80;;;5.80;99.90;;;;;;5077374;28;20028;-83
2021/12/05 16:05:53;;;;;;;3.43;0.90;;;5.70;99.90;;;;;;5086620;28;20024;-81
2021/12/05 16:08:19;;;;;;;4.17;1.00;;;5.70;99.90;;;;;;5075101;28;20027;-81
2021/12/05 16:10:50;;;;;;;6.20;1.10;;;5.70;99.90;;;;;;5081920;28;20028;-81
2021/12/05 16:13:34;;;;;;;3.60;1.30;;;5.70;99.90;;;;;;5088518;28;20048;-81
2021/12/05 16:16:11;;;;;;;2.47;1.43;;;5.60;99.90;;;;;;5089825;28;20024;-82
2021/12/05 16:18:40;;;;;;;3.83;1.60;;;5.60;99.90;;;;;;5089665;28;20027;-81
2021/12/05 16:21:32;;;;;;;4.93;1.60;;;5.60;99.90;;;;;;5090437;28;20523;-81
2021/12/05 16:24:07;;;;;;;4.38;1.67;;;5.60;99.90;;;;;;5090616;28;20081;-81
2021/12/05 16:26:33;;;;;;;18.53;7.03;;;5.50;99.90;;;;;;5073647;28;20161;-81
2021/12/05 16:29:09;;;;;;;18.47;7.80;;;5.60;99.90;;;;;;5083788;28;20020;-81
2021/12/05 16:31:46;;;;;;;9.43;4.20;;;5.60;99.90;;;;;;5094080;28;20024;-81
2021/12/05 16:34:17;;;;;;;10.63;3.97;;;5.70;99.90;;;;;;5094554;28;20043;-81
2021/12/05 16:36:52;;;;;;;11.07;4.17;;;5.80;99.90;;;;;;5097154;28;20085;-81
2021/12/05 16:39:21;;;;;;;11.77;6.00;;;5.80;99.90;;;;;;5094213;28;20031;-81
2021/12/05 16:41:50;;;;;;;14.23;6.20;;;5.70;99.90;;;;;;5093655;28;20036;-81
2021/12/05 16:44:22;;;;;;;11.77;5.60;;;5.70;99.90;;;;;;5093358;28;20020;-81
2021/12/05 16:46:52;;;;;;;11.77;4.90;;;5.70;99.90;;;;;;5093346;28;20161;-81
2021/12/05 16:49:21;;;;;;;11.87;5.07;;;5.80;99.90;;;;;;5093509;28;20438;-81
2021/12/05 16:51:54;;;;;;;8.77;4.63;;;5.80;99.90;;;;;;5093335;28;20020;-81
2021/12/05 16:54:43;;;;;;;10.33;4.40;;;5.80;99.90;;;;;;5094000;28;20027;-81
2021/12/05 16:57:20;;;;;;;7.87;3.30;;;5.80;99.90;;;;;;5086654;28;20047;-81
2021/12/05 16:59:48;;;;;;;5.43;3.00;;;5.80;99.90;;;;;;5095531;28;20364;-81
2021/12/05 17:02:17;;;;;;;6.03;2.93;;;5.80;99.90;;;;;;5089954;28;20032;-82
2021/12/05 17:04:48;;;;;;;7.77;3.53;;;5.80;99.90;;;;;;5082530;28;20028;-81
2021/12/05 17:07:17;;;;;;;8.03;4.00;;;5.80;99.90;;;;;;5094946;28;20452;-81
2021/12/05 17:09:43;;;;;;;7.70;4.23;;;5.80;99.90;;;;;;5093181;28;20491;-81
2021/12/05 17:12:31;;;;;;;10.70;3.50;;;5.90;99.90;;;;;;5091283;28;20052;-81
2021/12/05 17:15:11;;;;;;;7.03;3.77;;;5.90;99.90;;;;;;5105640;28;20028;-81
2021/12/05 17:17:36;;;;;;;5.90;3.30;;;5.90;99.90;;;;;;5095954;28;20024;-81
2021/12/05 17:20:23;;;;;;;7.63;3.83;;;5.90;99.90;;;;;;5098323;28;20436;-81
2021/12/05 17:22:55;;;;;;;7.03;3.40;;;5.80;99.90;;;;;;5115526;28;20039;-81
2021/12/05 17:25:43;;;;;;;6.20;3.50;;;5.80;99.90;;;;;;5108578;28;20456;-82
2021/12/05 17:28:31;;;;;;;6.53;3.27;;;5.70;99.90;;;;;;5080303;28;20023;-80
2021/12/05 17:30:59;;;;;;;5.07;2.73;;;5.60;99.90;;;;;;5096191;28;20027;-81
2021/12/05 17:33:28;;;;;;;6.27;2.70;;;5.70;99.90;;;;;;5098628;28;20481;-80
2021/12/05 17:35:54;;;;;;;5.40;2.60;;;5.70;99.90;;;;;;5092239;28;20530;-81
2021/12/05 17:38:35;;;;;;;6.53;2.70;;;5.60;99.90;;;;;;5081491;28;20118;-81
2021/12/05 17:41:01;;;;;;;5.27;2.73;;;5.60;99.90;;;;;;5104964;28;20479;-81
2021/12/05 17:43:27;;;;;;;5.37;2.33;;;5.60;99.90;;;;;;5088464;28;20046;-81
2021/12/05 17:45:53;;;;;;;5.93;2.17;;;5.60;99.90;;;;;;5079462;28;20127;-81
2021/12/05 17:48:19;;;;;;;3.43;1.60;;;5.60;99.90;;;;;;5090197;28;20028;-81
2021/12/05 17:50:44;;;;;;;4.87;1.80;;;5.60;99.90;;;;;;5085183;28;20059;-81
2021/12/05 17:53:11;;;;;;;3.73;1.67;;;5.60;99.90;;;;;;5082568;28;20039;-81
2021/12/05 17:55:44;;;;;;;4.87;2.17;;;5.60;99.90;;;;;;5092171;28;20026;-81
2021/12/05 17:58:22;;;;;;;4.80;2.23;;;5.60;99.90;;;;;;5080060;28;20386;-81
2021/12/05 18:02:35;;;;;;;5.93;2.20;;;5.60;99.90;;;;;;5095479;28;20448;-81
2021/12/05 18:03:41;;;;;;;7.20;2.80;;;5.60;99.90;;;;;;5096630;28;20024;-81
2021/12/05 18:06:06;;;;;;;5.77;3.17;;;5.60;99.90;;;;;;5095629;28;20076;-80
2021/12/05 18:08:32;;;;;;;6.83;3.00;;;5.60;99.90;;;;;;5086930;28;20020;-81
2021/12/05 18:11:01;;;;;;;6.50;2.83;;;5.60;99.90;;;;;;5104946;28;20036;-80
2021/12/05 18:13:33;;;;;;;4.80;2.50;;;5.60;99.90;;;;;;5079575;28;20044;-81
2021/12/05 18:16:04;;;;;;;7.15;2.75;;;5.60;99.90;;;;;;5095504;28;20024;-80
2021/12/05 18:18:32;;;;;;;8.38;3.38;;;5.60;99.90;;;;;;5088378;28;20081;-80
2021/12/05 18:21:00;;;;;;;7.43;3.50;;;5.70;99.90;;;;;;5075524;28;20544;-81
2021/12/05 18:23:26;;;;;;;8.17;3.90;;;5.70;99.90;;;;;;5074254;28;20028;-80
2021/12/05 18:25:52;;;;;;;9.73;4.00;;;5.60;99.90;;;;;;5093226;28;20027;-81
2021/12/05 18:28:18;;;;;;;6.23;3.60;;;5.60;99.90;;;;;;5089499;28;20016;-81